Temp: 17.0°C   Baro: 1010.5mb
  Wind: 6.9mph   Dir: W (274°)
  Rain: 0.8mm (0.0mm/hr)
  Solar: 132W/m2  Hum: 91%
 
Bath Spa Weather Station Historical Data
Daily Summary for November 28, 2019 Units:  Metric    English   Both
Daily Weekly Monthly Yearly Custom
  High: Low: Average:
Temperature: 11.4 °C 5.8 °C 8.6 °C
Dew Point: 8.6 °C 5.1 °C 7.4 °C
Humidity: 96% 82% 92%
Wind Speed: 13.7km/h 0km/h 3.2km/h
Wind Gust: 37km/h - -
Wind- - SW
Pressure: 1006.3 hPa 989.1 hPa -
Precipitation: 3.3 mm    
Historical Graphs
 
 
Tabular Data for November 28, 2019
Time Temperature Dew Point Pressure Wind Wind Speed Wind Gust Humidity Rainfall Rate (Hourly) solar
00:04 8.8 °C 8.2 °C 989.1 hPa West 2.6 km/h 6.4 km/h 95.8% 0 mm 0 W/m2
00:08 8.8 °C 8.1 °C 989.4 hPa West 4.7 km/h 8 km/h 95.3% 0 mm 0 W/m2
00:14 8.8 °C 8.2 °C 989.4 hPa West 3.9 km/h 8 km/h 95.8% 0 mm 0 W/m2
00:19 8.8 °C 8.2 °C 989.4 hPa West 4.2 km/h 8 km/h 96% 0 mm 0 W/m2
00:24 8.8 °C 8.2 °C 989.4 hPa West 5 km/h 8 km/h 96% 0 mm 0 W/m2
00:29 8.8 °C 8.2 °C 989.4 hPa West 4.7 km/h 8 km/h 96% 0 mm 0 W/m2
00:34 8.9 °C 8.3 °C 989.4 hPa West 5.8 km/h 11.3 km/h 96% 0 mm 0 W/m2
00:39 9 °C 8.4 °C 989.4 hPa West 6.1 km/h 11.3 km/h 96% 0 mm 0 W/m2
00:44 9.1 °C 8.5 °C 989.4 hPa West 7.2 km/h 14.5 km/h 96% 0 mm 0 W/m2
00:49 9.1 °C 8.5 °C 989.4 hPa West 4 km/h 9.7 km/h 96% 0 mm 0 W/m2
00:54 9.1 °C 8.5 °C 989.4 hPa West 4.5 km/h 8 km/h 96% 0 mm 0 W/m2
00:59 9.1 °C 8.5 °C 989.4 hPa West 7.6 km/h 9.7 km/h 96% 0 mm 0 W/m2
01:04 9.1 °C 8.5 °C 989.4 hPa West 5.8 km/h 11.3 km/h 96% 0 mm 0 W/m2
01:09 9.2 °C 8.6 °C 989.4 hPa West 8.4 km/h 12.9 km/h 96% 0 mm 0 W/m2
01:14 9.2 °C 8.6 °C 989.4 hPa West 6.9 km/h 11.3 km/h 96% 0 mm 0 W/m2
01:19 9.1 °C 8.5 °C 989.4 hPa West 4 km/h 11.3 km/h 96% 0 mm 0 W/m2
01:24 9.1 °C 8.5 °C 989.4 hPa West 4 km/h 11.3 km/h 96% 0 mm 0 W/m2
01:25 9.1 °C 8.5 °C 989.4 hPa West 4.7 km/h 11.3 km/h 96% 0 mm 0 W/m2
01:39 9.1 °C 8.5 °C 989.7 hPa West 3.1 km/h 8 km/h 96% 0 mm 0 W/m2
01:43 9.1 °C 8.5 °C 989.7 hPa West 3.1 km/h 8 km/h 96% 0 mm 0 W/m2
01:49 9.1 °C 8.5 °C 989.7 hPa West 6.1 km/h 9.7 km/h 96% 0 mm 0 W/m2
01:54 9.1 °C 8.5 °C 989.7 hPa West 3.9 km/h 8 km/h 96% 0 mm 0 W/m2
01:59 9.1 °C 8.5 °C 989.7 hPa West 3.9 km/h 9.7 km/h 96% 0 mm 0 W/m2
02:04 9.1 °C 8.5 °C 989.7 hPa West 5.3 km/h 11.3 km/h 96% 0 mm 0 W/m2
02:09 9.1 °C 8.5 °C 989.7 hPa West 4.2 km/h 11.3 km/h 96% 0 mm 0 W/m2
02:14 9.1 °C 8.5 °C 989.7 hPa West 3.4 km/h 11.3 km/h 96% 0 mm 0 W/m2
02:19 9.1 °C 8.5 °C 989.7 hPa West 6 km/h 9.7 km/h 96% 0 mm 0 W/m2
02:24 9.1 °C 8.5 °C 989.7 hPa West 5.5 km/h 8 km/h 96% 0 mm 0 W/m2
02:29 9.1 °C 8.5 °C 990.1 hPa West 6.8 km/h 11.3 km/h 96% 0 mm 0 W/m2
02:34 9.1 °C 8.5 °C 990.1 hPa West 5.8 km/h 12.9 km/h 96% 0 mm 0 W/m2
02:39 9.1 °C 8.4 °C 990.1 hPa West 3.7 km/h 9.7 km/h 95.8% 0 mm 0 W/m2
02:44 9.1 °C 8.3 °C 990.1 hPa West 6.1 km/h 11.3 km/h 95.4% 0 mm 0 W/m2
02:49 9 °C 8.2 °C 990.1 hPa West 5.1 km/h 11.3 km/h 95% 0 mm 0 W/m2
02:54 9.1 °C 8.3 °C 990.1 hPa West 6.4 km/h 11.3 km/h 95% 0 mm 0 W/m2
02:59 9.1 °C 8.3 °C 990.1 hPa West 6.4 km/h 12.9 km/h 95% 0 mm 0 W/m2
03:04 9.1 °C 8.3 °C 990.1 hPa West 6.6 km/h 11.3 km/h 95% 0 mm 0 W/m2
03:08 9.1 °C 8.3 °C 990.1 hPa West 8.4 km/h 14.5 km/h 95% 0 mm 0 W/m2
03:14 9.1 °C 8.3 °C 990.4 hPa West 5.3 km/h 8 km/h 95% 0 mm 0 W/m2
03:19 9.1 °C 8.3 °C 990.4 hPa West 4 km/h 9.7 km/h 95% 0 mm 0 W/m2
03:24 9.1 °C 8.3 °C 990.4 hPa West 6.8 km/h 11.3 km/h 95% 0 mm 0 W/m2
03:29 9.1 °C 8.3 °C 990.4 hPa West 3.5 km/h 11.3 km/h 95% 0 mm 0 W/m2
03:34 9.1 °C 8.3 °C 990.4 hPa West 5 km/h 9.7 km/h 95% 0 mm 0 W/m2
03:39 9.1 °C 8.3 °C 990.7 hPa West 4.8 km/h 16.1 km/h 95% 0 mm 0 W/m2
03:44 9.1 °C 8.3 °C 990.7 hPa West 5.8 km/h 11.3 km/h 95% 0 mm 0 W/m2
03:49 9.1 °C 8.3 °C 990.7 hPa West 1.6 km/h 6.4 km/h 95% 0 mm 0 W/m2
03:54 9.1 °C 8.3 °C 990.7 hPa West 4 km/h 11.3 km/h 95% 0 mm 0 W/m2
03:59 9 °C 8.2 °C 990.7 hPa West 2.4 km/h 8 km/h 95% 0 mm 0 W/m2
04:04 9 °C 8.2 °C 990.7 hPa West 2.1 km/h 8 km/h 95% 0 mm 0 W/m2
04:09 8.9 °C 8.1 °C 990.7 hPa West 3.4 km/h 8 km/h 95% 0 mm 0 W/m2
04:14 8.9 °C 8.1 °C 990.7 hPa West 2.1 km/h 6.4 km/h 95% 0 mm 0 W/m2
04:19 8.8 °C 8 °C 990.7 hPa West 0.6 km/h 4.8 km/h 95% 0 mm 0 W/m2
04:24 8.8 °C 8 °C 991.1 hPa Calm   3.2 km/h 95% 0 mm 0 W/m2
04:29 8.7 °C 7.9 °C 991.1 hPa Calm     95% 0 mm 0 W/m2
04:34 8.7 °C 7.9 °C 991.1 hPa Calm     95% 0 mm 0 W/m2
04:39 8.7 °C 7.9 °C 991.1 hPa West 1.3 km/h 6.4 km/h 95% 0 mm 0 W/m2
04:44 8.6 °C 7.8 °C 991.1 hPa West 2.7 km/h 6.4 km/h 95% 0 mm 0 W/m2
04:49 8.4 °C 7.7 °C 991.1 hPa West 1.4 km/h 4.8 km/h 95% 0 mm 0 W/m2
04:54 8.4 °C 7.6 °C 991.1 hPa West 1 km/h 3.2 km/h 95% 0 mm 0 W/m2
04:59 8.4 °C 7.6 °C 991.4 hPa Calm   1.6 km/h 95% 0 mm 0 W/m2
05:04 8.3 °C 7.6 °C 991.4 hPa West 0.3 km/h 1.6 km/h 95% 0 mm 0 W/m2
05:09 8.3 °C 7.4 °C 991.4 hPa Calm     95% 0 mm 0 W/m2
05:14 8.2 °C 7.4 °C 991.4 hPa Calm     95% 0 mm 0 W/m2
05:19 8.1 °C 7.3 °C 991.4 hPa West 0.5 km/h 1.6 km/h 95% 0 mm 0 W/m2
05:24 8.1 °C 7.3 °C 991.4 hPa Calm   1.6 km/h 95% 0 mm 0 W/m2
05:29 7.9 °C 7.2 °C 991.8 hPa Calm     95% 0 mm 0 W/m2
05:34 7.9 °C 7.1 °C 991.8 hPa Calm     95% 0 mm 0 W/m2
05:39 7.8 °C 7 °C 991.8 hPa Calm     95% 0 mm 0 W/m2
05:44 7.7 °C 6.9 °C 991.8 hPa Calm     95% 0 mm 0 W/m2
05:49 7.6 °C 6.8 °C 992.1 hPa Calm     95% 0 mm 0 W/m2
05:54 7.4 °C 6.7 °C 992.1 hPa Calm     95% 0 mm 0 W/m2
05:58 7.3 °C 6.7 °C 992.1 hPa Calm     95% 0 mm 0 W/m2
06:04 7.3 °C 6.6 °C 992.1 hPa Calm     95% 0 mm 0 W/m2
06:09 7.2 °C 6.5 °C 992.4 hPa Calm     95% 0 mm 0 W/m2
06:14 7.1 °C 6.3 °C 992.4 hPa Calm     95% 0 mm 0 W/m2
06:19 6.9 °C 6.2 °C 992.4 hPa Calm     95% 0 mm 0 W/m2
06:24 6.8 °C 6.2 °C 992.4 hPa Calm     95% 0 mm 0 W/m2
06:29 6.8 °C 6.1 °C 992.4 hPa Calm     95% 0 mm 0 W/m2
06:34 6.7 °C 6 °C 992.8 hPa Calm     95% 0 mm 0 W/m2
06:39 6.7 °C 5.9 °C 992.8 hPa Calm     95% 0 mm 0 W/m2
06:44 6.6 °C 5.9 °C 993.1 hPa Calm     95% 0 mm 0 W/m2
06:49 6.6 °C 5.9 °C 993.1 hPa Calm     95% 0 mm 0 W/m2
06:54 6.6 °C 5.8 °C 993.1 hPa Calm     95% 0 mm 0 W/m2
06:59 6.4 °C 5.8 °C 993.5 hPa Calm     95% 0 mm 0 W/m2
07:04 6.4 °C 5.7 °C 993.5 hPa Calm     95% 0 mm 0 W/m2
07:09 6.3 °C 5.6 °C 993.5 hPa Calm     95% 0 mm 0 W/m2
07:14 6.2 °C 5.5 °C 993.5 hPa Calm     95% 0 mm 0 W/m2
07:19 6.2 °C 5.5 °C 993.5 hPa Calm     95% 0 mm 0 W/m2
07:24 6.2 °C 5.5 °C 993.8 hPa Calm     95% 0 mm 0 W/m2
07:29 6.2 °C 5.5 °C 993.8 hPa Calm     95% 0 mm 0 W/m2
07:34 6.2 °C 5.4 °C 993.8 hPa Calm     95% 0 mm 0 W/m2
07:39 6.3 °C 5.6 °C 993.8 hPa Calm     95% 0 mm 0 W/m2
07:44 6.2 °C 5.4 °C 994.1 hPa Calm     95% 0 mm 0 W/m2
07:49 6.2 °C 5.4 °C 994.1 hPa Calm     95% 0 mm 5 W/m2
07:54 6.2 °C 5.4 °C 994.1 hPa Calm     95% 0 mm 7 W/m2
07:59 5.9 °C 5.3 °C 994.1 hPa West 1 km/h 3.2 km/h 95% 0 mm 9 W/m2
08:04 5.9 °C 5.2 °C 994.1 hPa West 2.4 km/h 4.8 km/h 95% 0 mm 11 W/m2
08:09 5.9 °C 5.3 °C 994.5 hPa West 0.3 km/h 1.6 km/h 95% 0 mm 12 W/m2
08:14 5.9 °C 5.2 °C 994.5 hPa Calm   3.2 km/h 95% 0 mm 16 W/m2
08:19 6 °C 5.3 °C 994.5 hPa Calm   1.6 km/h 95% 0 mm 18 W/m2
08:24 5.8 °C 5.2 °C 994.5 hPa Calm     95% 0 mm 19 W/m2
08:29 5.8 °C 5.1 °C 994.8 hPa Calm     95% 0 mm 21 W/m2
08:34 5.8 °C 5.1 °C 994.8 hPa Calm     95% 0 mm 23 W/m2
08:39 5.9 °C 5.2 °C 994.8 hPa West 0.5 km/h 1.6 km/h 95% 0 mm 23 W/m2
08:44 5.9 °C 5.2 °C 994.8 hPa Calm     95% 0 mm 25 W/m2
08:49 6.4 °C 5.7 °C 995.1 hPa Calm     95.4% 0 mm 28 W/m2
08:54 6.4 °C 5.7 °C 995.1 hPa Calm   1.6 km/h 95.2% 0 mm 30 W/m2
08:59 6.4 °C 5.8 °C 995.1 hPa Calm   3.2 km/h 96% 0 mm 32 W/m2
09:04 6.4 °C 5.8 °C 995.1 hPa West 1.3 km/h 4.8 km/h 95.8% 0 mm 33 W/m2
09:09 6.6 °C 5.9 °C 995.5 hPa West 0.8 km/h 4.8 km/h 95.6% 0 mm 35 W/m2
09:14 6.6 °C 6 °C 995.5 hPa West 4.8 km/h 6.4 km/h 96% 0 mm 35 W/m2
09:19 6.7 °C 6.1 °C 995.5 hPa West 1.6 km/h 6.4 km/h 96% 0 mm 35 W/m2
09:24 6.8 °C 6.2 °C 995.5 hPa West 3.2 km/h 6.4 km/h 96% 0 mm 37 W/m2
09:29 7 °C 6.4 °C 995.8 hPa West 0.8 km/h 4.8 km/h 96% 0 mm 40 W/m2
09:34 7.2 °C 6.6 °C 995.8 hPa West 1.4 km/h 4.8 km/h 96% 0 mm 44 W/m2
09:39 7.3 °C 6.7 °C 995.8 hPa West 2.6 km/h 8 km/h 95.8% 0 mm 49 W/m2
09:44 7.5 °C 6.8 °C 995.8 hPa West 5.8 km/h 20.9 km/h 95.6% 0 mm 54 W/m2
09:49 7.7 °C 6.9 °C 995.8 hPa West 8.4 km/h 37 km/h 95% 0 mm 63 W/m2
09:54 8.1 °C 7.2 °C 995.8 hPa West 1 km/h 8 km/h 95% 0 mm 74 W/m2
09:59 8.1 °C 7.3 °C 995.8 hPa West 1.9 km/h 6.4 km/h 95% 0 mm 79 W/m2
10:04 8.3 °C 7.5 °C 996.2 hPa West 0.6 km/h 6.4 km/h 95% 0 mm 86 W/m2
10:09 8.4 °C 7.6 °C 996.2 hPa West 3.1 km/h 6.4 km/h 94.6% 0 mm 93 W/m2
10:14 8.5 °C 7.6 °C 996.2 hPa West 2.4 km/h 4.8 km/h 94% 0 mm 97 W/m2
10:19 8.7 °C 7.7 °C 996.2 hPa West 1 km/h 6.4 km/h 93.4% 0 mm 98 W/m2
10:24 8.7 °C 7.7 °C 996.2 hPa West 3.1 km/h 6.4 km/h 93% 0 mm 107 W/m2
10:29 8.8 °C 7.6 °C 996.5 hPa West 1.3 km/h 6.4 km/h 92% 0 mm 104 W/m2
10:34 9 °C 7.7 °C 996.5 hPa West 2.7 km/h 6.4 km/h 91.8% 0 mm 105 W/m2
10:39 9.2 °C 7.8 °C 996.5 hPa West 3.5 km/h 8 km/h 91% 0 mm 128 W/m2
10:44 9.1 °C 7.6 °C 996.5 hPa West 5.3 km/h 9.7 km/h 90.4% 0 mm 137 W/m2
10:49 9.2 °C 7.6 °C 996.5 hPa West 2.7 km/h 6.4 km/h 90% 0 mm 132 W/m2
10:54 9.3 °C 7.7 °C 996.5 hPa West 2.6 km/h 8 km/h 90% 0 mm 142 W/m2
10:59 9.5 °C 7.8 °C 996.5 hPa West 1.3 km/h 4.8 km/h 89.6% 0 mm 144 W/m2
11:04 9.6 °C 7.9 °C 996.5 hPa West 4.2 km/h 8 km/h 89.2% 0 mm 141 W/m2
11:09 9.7 °C 8 °C 996.5 hPa West 1.9 km/h 8 km/h 89% 0 mm 158 W/m2
11:14 9.8 °C 8 °C 996.5 hPa West 6.9 km/h 11.3 km/h 88.8% 0 mm 167 W/m2
11:19 9.7 °C 7.8 °C 996.5 hPa West 6 km/h 11.3 km/h 88% 0 mm 186 W/m2
11:24 9.9 °C 7.9 °C 996.5 hPa West 3.9 km/h 11.3 km/h 87.8% 0 mm 185 W/m2
11:29 10.2 °C 8.1 °C 996.8 hPa West 3.2 km/h 9.7 km/h 87% 0 mm 186 W/m2
11:34 10.4 °C 8.2 °C 996.8 hPa West 2.9 km/h 9.7 km/h 86.6% 0 mm 190 W/m2
11:39 10.4 °C 8.2 °C 996.8 hPa West 4.7 km/h 12.9 km/h 86% 0 mm 186 W/m2
11:44 10.4 °C 8 °C 996.8 hPa West 4.3 km/h 12.9 km/h 85% 0 mm 188 W/m2
11:49 10.4 °C 7.9 °C 996.8 hPa West 5.1 km/h 12.9 km/h 84.3% 0 mm 186 W/m2
11:54 10.6 °C 8.1 °C 996.8 hPa West 3.2 km/h 9.7 km/h 84.6% 0 mm 142 W/m2
11:59 10.7 °C 8.2 °C 996.8 hPa West 5.6 km/h 9.7 km/h 85% 0 mm 190 W/m2
12:04 10.7 °C 8.2 °C 996.8 hPa West 4.3 km/h 11.3 km/h 85% 0 mm 220 W/m2
12:09 10.8 °C 8.3 °C 996.8 hPa West 4.7 km/h 12.9 km/h 84.8% 0 mm 223 W/m2
12:14 10.9 °C 8.2 °C 996.8 hPa West 7.2 km/h 12.9 km/h 83.8% 0 mm 218 W/m2
12:19 11.1 °C 8.3 °C 996.8 hPa WSW 6.3 km/h 14.5 km/h 83% 0 mm 211 W/m2
12:24 11.3 °C 8.4 °C 996.8 hPa West 2.4 km/h 9.7 km/h 82.5% 0 mm 195 W/m2
12:29 11.2 °C 8.2 °C 996.8 hPa West 8.7 km/h 12.9 km/h 82% 0 mm 207 W/m2
12:34 11.2 °C 8.2 °C 997.2 hPa WNW 3.7 km/h 11.3 km/h 82.4% 0 mm 193 W/m2
12:39 11.4 °C 8.6 °C 997.2 hPa West 6.8 km/h 14.5 km/h 83% 0 mm 206 W/m2
12:44 11.2 °C 8.3 °C 997.2 hPa WNW 7.1 km/h 14.5 km/h 82.4% 0 mm 200 W/m2
12:49 11.1 °C 8.1 °C 997.2 hPa West 9.2 km/h 16.1 km/h 82.3% 0 mm 156 W/m2
12:54 10.9 °C 8 °C 997.2 hPa WNW 7.7 km/h 16.1 km/h 82.6% 0 mm 174 W/m2
12:59 10.9 °C 8.2 °C 997.2 hPa West 5.6 km/h 16.1 km/h 83% 0 mm 171 W/m2
13:04 11 °C 8.2 °C 997.2 hPa West 10.1 km/h 14.5 km/h 83% 0 mm 153 W/m2
13:08 10.9 °C 8.1 °C 997.5 hPa West 6.8 km/h 14.5 km/h 83% 0 mm 114 W/m2
13:14 10.9 °C 8.1 °C 997.5 hPa West 5.8 km/h 12.9 km/h 83% 0 mm 83 W/m2
13:19 10.8 °C 8.1 °C 997.5 hPa West 5.8 km/h 12.9 km/h 83.6% 0 mm 74 W/m2
13:24 10.7 °C 8.1 °C 997.5 hPa West 6.8 km/h 11.3 km/h 84% 0 mm 76 W/m2
13:29 10.6 °C 8 °C 997.9 hPa West 4.3 km/h 9.7 km/h 84% 0 mm 81 W/m2
13:34 10.5 °C 7.9 °C 997.9 hPa West 6.3 km/h 11.3 km/h 84% 0 mm 81 W/m2
13:39 10.5 °C 8.1 °C 997.9 hPa West 4.3 km/h 11.3 km/h 84.8% 0 mm 81 W/m2
13:44 10.5 °C 8.1 °C 997.9 hPa West 6 km/h 11.3 km/h 85% 0 mm 79 W/m2
13:49 10.5 °C 8.1 °C 997.9 hPa West 4.7 km/h 8 km/h 85% 0 mm 76 W/m2
13:54 10.5 °C 8.1 °C 997.9 hPa West 6.4 km/h 12.9 km/h 85% 0 mm 70 W/m2
13:59 10.4 °C 8.1 °C 997.9 hPa West 6.4 km/h 12.9 km/h 85.3% 0 mm 70 W/m2
14:04 10.4 °C 8.2 °C 997.9 hPa West 7.1 km/h 16.1 km/h 86% 0 mm 69 W/m2
14:09 10.3 °C 8.1 °C 997.9 hPa West 6.8 km/h 14.5 km/h 86% 0 mm 70 W/m2
14:14 10.2 °C 8.1 °C 997.9 hPa West 4.3 km/h 12.9 km/h 86.8% 0 mm 72 W/m2
14:19 10.1 °C 8 °C 997.9 hPa West 5.5 km/h 9.7 km/h 87% 0 mm 69 W/m2
14:24 10.1 °C 8.1 °C 997.9 hPa West 3.2 km/h 9.7 km/h 87.2% 0 mm 63 W/m2
14:29 10 °C 8.1 °C 997.9 hPa West 8 km/h 11.3 km/h 88% 0 mm 63 W/m2
14:34 9.9 °C 8 °C 997.9 hPa West 3.2 km/h 11.3 km/h 88% 0 mm 60 W/m2
14:39 9.9 °C 8 °C 997.9 hPa West 7.6 km/h 11.3 km/h 88% 0 mm 56 W/m2
14:44 9.9 °C 8 °C 998.2 hPa West 3.2 km/h 11.3 km/h 88% 0 mm 56 W/m2
14:49 9.9 °C 8 °C 998.2 hPa West 4.7 km/h 11.3 km/h 88% 0 mm 54 W/m2
14:54 9.9 °C 8.2 °C 998.2 hPa West 5.6 km/h 11.3 km/h 88.8% 0 mm 49 W/m2
14:59 9.8 °C 8.2 °C 998.2 hPa West 5.3 km/h 11.3 km/h 89% 0 mm 46 W/m2
15:04 9.8 °C 8.1 °C 998.2 hPa West 4.5 km/h 9.7 km/h 89% 0 mm 40 W/m2
15:09 9.8 °C 8.1 °C 998.2 hPa West 4.3 km/h 9.7 km/h 89% 0 mm 35 W/m2
15:14 9.8 °C 8.1 °C 998.5 hPa West 4.7 km/h 9.7 km/h 89% 0 mm 32 W/m2
15:19 9.8 °C 8.1 °C 998.5 hPa West 3.2 km/h 8 km/h 89% 0 mm 26 W/m2
15:24 9.8 °C 8.1 °C 998.5 hPa West 3.1 km/h 6.4 km/h 89% 0 mm 21 W/m2
15:29 9.8 °C 8.1 °C 998.5 hPa West 2.9 km/h 8 km/h 89% 0 mm 18 W/m2
15:34 9.7 °C 8.1 °C 998.9 hPa West 2.6 km/h 8 km/h 89.6% 0 mm 14 W/m2
15:39 9.7 °C 8.1 °C 998.9 hPa West 4.3 km/h 9.7 km/h 90% 0 mm 12 W/m2
15:44 9.7 °C 8.1 °C 998.9 hPa West 2.7 km/h 9.7 km/h 90% 0 mm 11 W/m2
15:49 9.6 °C 8 °C 998.9 hPa West 5.1 km/h 11.3 km/h 90% 0 mm 9 W/m2
15:54 9.6 °C 8 °C 998.9 hPa West 4.8 km/h 11.3 km/h 90% 0 mm 7 W/m2
15:59 9.6 °C 8 °C 998.9 hPa West 3.5 km/h 6.4 km/h 90% 0 mm 5 W/m2
16:04 9.6 °C 7.9 °C 999.2 hPa West 3.7 km/h 8 km/h 90% 0 mm 5 W/m2
16:09 9.4 °C 7.8 °C 999.2 hPa West 1.3 km/h 6.4 km/h 90% 0 mm 0 W/m2
16:14 9.4 °C 8 °C 999.2 hPa West 1.6 km/h 8 km/h 91% 0 mm 0 W/m2
16:19 9.4 °C 8 °C 999.2 hPa West 3.2 km/h 8 km/h 91% 0 mm 0 W/m2
16:24 9.4 °C 8 °C 999.2 hPa West 3.4 km/h 6.4 km/h 91% 0 mm 0 W/m2
16:29 9.4 °C 8 °C 999.2 hPa West 1 km/h 8 km/h 91% 0 mm 0 W/m2
16:34 9.3 °C 7.9 °C 999.5 hPa West 0.3 km/h 4.8 km/h 91% 0 mm 0 W/m2
16:39 9.3 °C 7.9 °C 999.5 hPa West 1.9 km/h 4.8 km/h 91% 0 mm 0 W/m2
16:44 9.3 °C 7.9 °C 999.5 hPa West 0.6 km/h 4.8 km/h 91% 0 mm 0 W/m2
16:49 9.2 °C 7.8 °C 999.5 hPa West 3.5 km/h 8 km/h 91% 0 mm 0 W/m2
16:54 9.2 °C 7.8 °C 999.5 hPa West 3.1 km/h 6.4 km/h 91% 0 mm 0 W/m2
16:59 9.2 °C 7.8 °C 999.5 hPa West 1.3 km/h 4.8 km/h 91% 0 mm 0 W/m2
17:04 9.1 °C 7.7 °C 999.5 hPa West 1.9 km/h 6.4 km/h 91% 0 mm 0 W/m2
17:09 9.1 °C 7.7 °C 999.5 hPa West 0.6 km/h 4.8 km/h 91% 0 mm 0 W/m2
17:14 9.1 °C 7.7 °C 999.9 hPa West 0.6 km/h 3.2 km/h 91% 0 mm 0 W/m2
17:19 9.1 °C 7.7 °C 999.9 hPa West 2.3 km/h 4.8 km/h 91% 0 mm 0 W/m2
17:24 9.1 °C 7.7 °C 999.9 hPa West 0.3 km/h 4.8 km/h 91% 0 mm 0 W/m2
17:29 9.1 °C 7.7 °C 999.9 hPa West 0.6 km/h 3.2 km/h 91% 0 mm 0 W/m2
17:34 9.1 °C 7.8 °C 999.9 hPa West 0.6 km/h 3.2 km/h 91.6% 0 mm 0 W/m2
17:39 9 °C 7.8 °C 1000.2 hPa West 0.3 km/h 3.2 km/h 92% 0 mm 0 W/m2
17:44 8.9 °C 7.8 °C 1000.2 hPa West 0.3 km/h 3.2 km/h 92% 0 mm 0 W/m2
17:49 8.9 °C 7.7 °C 1000.2 hPa Calm   1.6 km/h 92% 0 mm 0 W/m2
17:54 8.9 °C 7.7 °C 1000.2 hPa Calm     92% 0 mm 0 W/m2
17:59 8.9 °C 7.7 °C 1000.2 hPa Calm   1.6 km/h 92% 0 mm 0 W/m2
18:04 8.9 °C 7.7 °C 1000.2 hPa Calm     92% 0 mm 0 W/m2
18:09 8.8 °C 7.7 °C 1000.6 hPa West 1.6 km/h 3.2 km/h 92% 0 mm 0 W/m2
18:14 8.8 °C 7.6 °C 1000.6 hPa Calm   1.6 km/h 92% 0 mm 0 W/m2
18:19 8.9 °C 7.7 °C 1000.6 hPa Calm     92% 0 mm 0 W/m2
18:23 8.9 °C 7.7 °C 1000.6 hPa Calm     92% 0 mm 0 W/m2
18:29 8.9 °C 7.7 °C 1000.6 hPa Calm     92% 0 mm 0 W/m2
18:34 8.9 °C 7.7 °C 1000.9 hPa Calm     92% 0 mm 0 W/m2
18:39 8.9 °C 7.7 °C 1000.9 hPa Calm     92% 0 mm 0 W/m2
18:44 8.9 °C 7.7 °C 1000.9 hPa Calm     92% 0 mm 0 W/m2
18:49 8.9 °C 7.7 °C 1000.9 hPa Calm     92% 0 mm 0 W/m2
18:54 8.9 °C 7.7 °C 1000.9 hPa Calm     92% 0 mm 0 W/m2
18:59 8.9 °C 7.7 °C 1001.2 hPa Calm     92% 0 mm 0 W/m2
19:04 8.9 °C 7.7 °C 1001.2 hPa Calm     92% 0 mm 0 W/m2
19:09 8.9 °C 7.7 °C 1001.2 hPa Calm     92% 0 mm 0 W/m2
19:14 8.9 °C 7.8 °C 1001.2 hPa Calm     92% 0 mm 0 W/m2
19:19 8.9 °C 7.7 °C 1001.2 hPa Calm     92% 0 mm 0 W/m2
19:24 8.9 °C 7.7 °C 1001.2 hPa West 0.6 km/h 3.2 km/h 92% 0 mm 0 W/m2
19:29 8.9 °C 7.7 °C 1001.6 hPa West 0.3 km/h 3.2 km/h 92.4% 0 mm 0 W/m2
19:34 9 °C 7.8 °C 1001.6 hPa Calm     92.4% 0.25 mm 0 W/m2
19:39 9 °C 7.9 °C 1001.6 hPa Calm     93% 0.25 mm 0 W/m2
19:44 9 °C 7.9 °C 1001.6 hPa Calm     93% 0.51 mm 0 W/m2
19:49 9.1 °C 7.9 °C 1001.9 hPa Calm     93% 0.51 mm 0 W/m2
19:54 9.1 °C 8 °C 1001.9 hPa Calm     93% 0.76 mm 0 W/m2
19:59 9.1 °C 8 °C 1001.9 hPa Calm     93% 1.02 mm 0 W/m2
20:04 9.1 °C 8 °C 1001.9 hPa Calm     93% 1.27 mm 0 W/m2
20:09 9 °C 7.9 °C 1001.9 hPa Calm     93% 1.52 mm 0 W/m2
20:14 9 °C 7.9 °C 1001.9 hPa Calm     93% 1.52 mm 0 W/m2
20:19 8.9 °C 7.8 °C 1002.3 hPa Calm     93% 1.52 mm 0 W/m2
20:24 8.9 °C 7.8 °C 1002.3 hPa Calm     93% 1.52 mm 0 W/m2
20:29 8.8 °C 7.8 °C 1002.3 hPa Calm     93% 1.52 mm 0 W/m2
20:34 8.7 °C 7.6 °C 1002.6 hPa Calm     93% 1.78 mm 0 W/m2
20:39 8.7 °C 7.6 °C 1002.6 hPa NE 3.2 km/h 14.5 km/h 93% 2.03 mm 0 W/m2
20:44 8.6 °C 7.5 °C 1002.6 hPa ENE 5.6 km/h 17.7 km/h 93% 2.03 mm 0 W/m2
20:49 8.6 °C 7.5 °C 1002.9 hPa ENE 6.1 km/h 14.5 km/h 93% 1.78 mm 0 W/m2
20:54 8.3 °C 7.2 °C 1002.9 hPa NNE 11.6 km/h 24.1 km/h 93% 1.52 mm 0 W/m2
20:59 8.2 °C 7.1 °C 1002.9 hPa NE 9.3 km/h 20.9 km/h 93% 1.52 mm 0 W/m2
21:04 8.1 °C 7 °C 1002.9 hPa NE 6.4 km/h 17.7 km/h 93% 1.52 mm 0 W/m2
21:09 7.9 °C 6.8 °C 1003.3 hPa NE 9 km/h 25.7 km/h 93.2% 1.27 mm 0 W/m2
21:14 7.8 °C 6.7 °C 1003.3 hPa ENE 9.7 km/h 25.7 km/h 93% 1.02 mm 0 W/m2
21:19 7.7 °C 6.8 °C 1003.3 hPa ENE 9.3 km/h 17.7 km/h 94% 1.02 mm 0 W/m2
21:24 7.5 °C 6.4 °C 1003.3 hPa ENE 7.9 km/h 25.7 km/h 93% 1.02 mm 0 W/m2
21:29 7.4 °C 6.3 °C 1003.6 hPa ENE 5.1 km/h 14.5 km/h 93% 1.02 mm 0 W/m2
21:34 7.4 °C 6.4 °C 1003.6 hPa East 6.8 km/h 12.9 km/h 93.8% 1.02 mm 0 W/m2
21:39 7.3 °C 6.4 °C 1003.6 hPa East 6.3 km/h 14.5 km/h 94% 1.02 mm 0 W/m2
21:44 7.3 °C 6.4 °C 1003.6 hPa East 3.9 km/h 14.5 km/h 94% 1.02 mm 0 W/m2
21:49 7.3 °C 6.4 °C 1003.6 hPa ENE 6.3 km/h 16.1 km/h 94% 1.02 mm 0 W/m2
21:54 7.3 °C 6.4 °C 1003.9 hPa ENE 13.7 km/h 22.5 km/h 94% 0.76 mm 0 W/m2
21:59 7.2 °C 6.3 °C 1003.9 hPa NE 4 km/h 22.5 km/h 94% 0.76 mm 0 W/m2
22:04 7.1 °C 6.2 °C 1003.9 hPa NE 8 km/h 17.7 km/h 94% 0.76 mm 0 W/m2
22:09 7 °C 6.1 °C 1004.3 hPa NE 9.5 km/h 17.7 km/h 94% 0.51 mm 0 W/m2
22:14 6.9 °C 6 °C 1004.3 hPa ENE 8 km/h 17.7 km/h 94% 0.51 mm 0 W/m2
22:19 6.8 °C 5.9 °C 1004.3 hPa ENE 11.3 km/h 20.9 km/h 94% 0.51 mm 0 W/m2
22:24 6.8 °C 5.9 °C 1004.3 hPa NE 6.4 km/h 12.9 km/h 94% 0.51 mm 0 W/m2
22:29 6.8 °C 5.9 °C 1004.6 hPa ENE 5.5 km/h 14.5 km/h 94% 0.51 mm 0 W/m2
22:34 6.7 °C 5.8 °C 1004.6 hPa ENE 6 km/h 14.5 km/h 94% 0.51 mm 0 W/m2
22:39 6.7 °C 5.8 °C 1004.6 hPa NE 6.3 km/h 19.3 km/h 94% 0.25 mm 0 W/m2
22:44 6.7 °C 5.8 °C 1004.6 hPa NE 8 km/h 14.5 km/h 94% 0 mm 0 W/m2
22:49 6.7 °C 5.8 °C 1005 hPa NE 5.5 km/h 16.1 km/h 94% 0 mm 0 W/m2
22:54 6.6 °C 5.7 °C 1005 hPa NE 4.5 km/h 16.1 km/h 94% 0 mm 0 W/m2
22:59 6.6 °C 5.7 °C 1005 hPa ENE 9 km/h 16.1 km/h 94% 0 mm 0 W/m2
23:04 6.6 °C 5.7 °C 1005.3 hPa ENE 12.6 km/h 17.7 km/h 94% 0 mm 0 W/m2
23:09 6.6 °C 5.6 °C 1005.3 hPa NE 2.7 km/h 17.7 km/h 93.8% 0 mm 0 W/m2
23:14 6.5 °C 5.4 °C 1005.3 hPa NE 5.5 km/h 17.7 km/h 93% 0 mm 0 W/m2
23:19 6.5 °C 5.4 °C 1005.6 hPa NE 7.7 km/h 19.3 km/h 93% 0 mm 0 W/m2
23:24 6.4 °C 5.4 °C 1005.6 hPa NE 5.5 km/h 14.5 km/h 93% 0 mm 0 W/m2
23:29 6.4 °C 5.4 °C 1005.6 hPa NE 4.5 km/h 14.5 km/h 93% 0 mm 0 W/m2
23:34 6.4 °C 5.4 °C 1005.6 hPa East 4.5 km/h 12.9 km/h 93% 0 mm 0 W/m2
23:39 6.4 °C 5.4 °C 1006 hPa East 2.6 km/h 17.7 km/h 93% 0 mm 0 W/m2
23:44 6.4 °C 5.4 °C 1006 hPa NE 3.4 km/h 14.5 km/h 93% 0 mm 0 W/m2
23:49 6.3 °C 5.3 °C 1006 hPa NE 3.5 km/h 12.9 km/h 93% 0 mm 0 W/m2
23:54 6.3 °C 5.3 °C 1006.3 hPa ENE 6.8 km/h 14.5 km/h 93% 0 mm 0 W/m2
23:59 6.3 °C 5.3 °C 1006.3 hPa NE 3.4 km/h 11.3 km/h 93% 0 mm 0 W/m2
Bath Spa Weather
Compliments of Weather Underground - 2 mb